Wan Hai 510 — 9VJJ8 — position and weather

sailwx.info

Track history (hours):
 
Tides and Currents Weather Stations Pressure Air Temp Water Temp Dewpoint Dewpoint Depression Visibility Wind Speed Wind Dir Waves Ship Positions

Wan Hai 510

Last reported at 2017-Mar-28 07:06 UTC. Time now 2017-Mar-30 06:50 UTC.
Position N 22°32' E 119°53'.

Length 269 m; draft 10.9 m.

Type: Ship. MMSI: 565706755.

Date/timePositionNaut miles runAvg speedWind from/ knotsBaromVisibWave heightAir tempDewpointWater temp
2017-Mar-28 07:06N 22°32' E 119°53'1119.7
2017-Mar-28 06:33N 22°32' E 120°05'1313.3
2017-Mar-28 05:33N 22°33' E 120°19'1 1.3
2017-Mar-28 04:28N 22°35' E 120°18'0 0.1
2017-Mar-28 03:31N 22°35' E 120°18'0 0.1
2017-Mar-28 02:31N 22°35' E 120°18'0 0.1
2017-Mar-28 01:31N 22°35' E 120°18'0 0.1
2017-Mar-28 00:31N 22°35' E 120°18'0 0.1
2017-Mar-27 23:31N 22°35' E 120°18'0 0.0
2017-Mar-27 22:31N 22°35' E 120°18'0 0.0
2017-Mar-27 21:31N 22°35' E 120°18'0 0.1
2017-Mar-27 20:31N 22°35' E 120°18'0 0.1
2017-Mar-27 19:31N 22°35' E 120°18'0 0.0
2017-Mar-27 18:31N 22°35' E 120°18'0 0.0
2017-Mar-27 17:31N 22°35' E 120°18'0 0.0
2017-Mar-27 16:31N 22°35' E 120°18'0 0.1
2017-Mar-27 15:31N 22°35' E 120°18'0 0.1
2017-Mar-27 14:31N 22°35' E 120°18'0 0.1
2017-Mar-27 13:31N 22°35' E 120°18'0 0.0
2017-Mar-27 12:28N 22°35' E 120°18'0 0.0
2017-Mar-27 11:31N 22°35' E 120°18'0 0.1
2017-Mar-27 10:31N 22°35' E 120°18'0 0.0
2017-Mar-27 09:31N 22°35' E 120°18'0 0.0
2017-Mar-27 08:31N 22°35' E 120°18'0 0.0
2017-Mar-27 07:31N 22°35' E 120°18'0 0.0
2017-Mar-27 06:31N 22°35' E 120°18'0 0.0
2017-Mar-27 05:31N 22°35' E 120°18'0 0.1
2017-Mar-27 04:31N 22°35' E 120°18'0 0.1
2017-Mar-27 03:31N 22°35' E 120°18'0 0.0
2017-Mar-27 02:31N 22°35' E 120°18'0 0.1
2017-Mar-27 01:28N 22°35' E 120°18'0 0.1
2017-Mar-27 00:25N 22°35' E 120°18'0 0.4
2017-Mar-26 23:33N 22°34' E 120°18'6 6.5
2017-Mar-26 22:33N 22°30' E 120°13'1817.9
2017-Mar-26 21:33N 22°14' E 120°05'  
2017-Mar-23 16:16N 01°24' E 104°28'2218.6
2017-Mar-23 15:04N 01°15' E 104°07'917.4
2017-Mar-23 14:33N 01°14' E 103°58'10 9.8
2017-Mar-23 13:34N 01°12' E 103°49'6 5.5
2017-Mar-23 12:33N 01°17' E 103°46'0 0.0
2017-Mar-23 11:33N 01°17' E 103°46'0 0.0
2017-Mar-23 10:33N 01°17' E 103°46'0 0.0
2017-Mar-23 09:33N 01°17' E 103°46'0 0.0
2017-Mar-23 08:33N 01°17' E 103°46'0 0.0
2017-Mar-23 07:33N 01°17' E 103°46'0 0.0
2017-Mar-23 06:33N 01°17' E 103°46'0 0.1
2017-Mar-23 05:33N 01°17' E 103°46'0 0.1
2017-Mar-23 04:33N 01°17' E 103°46'0 0.0
2017-Mar-23 03:33N 01°17' E 103°46'0 0.0
2017-Mar-23 02:33N 01°17' E 103°46'0 0.0
2017-Mar-23 01:33N 01°17' E 103°46'0 0.0
2017-Mar-23 00:30N 01°17' E 103°46'0 0.0
2017-Mar-22 23:33N 01°17' E 103°46'0 0.0
2017-Mar-22 22:33N 01°17' E 103°46'1 0.9
2017-Mar-22 21:33N 01°17' E 103°45'6 6.3
2017-Mar-22 20:33N 01°13' E 103°41'8 7.6
2017-Mar-22 19:33N 01°11' E 103°34'7 7.3
2017-Mar-22 18:33N 01°11' E 103°26'1514.9
2017-Mar-22 17:33N 01°20' E 103°14'  
Track history (hours):
 
Tides and Currents Weather Stations Pressure Air Temp Water Temp Dewpoint Dewpoint Depression Visibility Wind Speed Wind Dir Waves Ship Positions

Wan Hai 510

Last reported at 2017-Mar-28 07:06 UTC. Time now 2017-Mar-30 06:50 UTC.
Position N 22°32' E 119°53'.

Length 269 m; draft 10.9 m.

Type: Ship. MMSI: 565706755.

Date/timePositionNaut miles runAvg speedWind from/ knotsBaromVisibWave heightAir tempDewpointWater temp
2017-Mar-28 07:06N 22°32' E 119°53'1119.7
2017-Mar-28 06:33N 22°32' E 120°05'1313.3
2017-Mar-28 05:33N 22°33' E 120°19'1 1.3
2017-Mar-28 04:28N 22°35' E 120°18'0 0.1
2017-Mar-28 03:31N 22°35' E 120°18'0 0.1
2017-Mar-28 02:31N 22°35' E 120°18'0 0.1
2017-Mar-28 01:31N 22°35' E 120°18'0 0.1
2017-Mar-28 00:31N 22°35' E 120°18'0 0.1
2017-Mar-27 23:31N 22°35' E 120°18'0 0.0
2017-Mar-27 22:31N 22°35' E 120°18'0 0.0
2017-Mar-27 21:31N 22°35' E 120°18'0 0.1
2017-Mar-27 20:31N 22°35' E 120°18'0 0.1
2017-Mar-27 19:31N 22°35' E 120°18'0 0.0
2017-Mar-27 18:31N 22°35' E 120°18'0 0.0
2017-Mar-27 17:31N 22°35' E 120°18'0 0.0
2017-Mar-27 16:31N 22°35' E 120°18'0 0.1
2017-Mar-27 15:31N 22°35' E 120°18'0 0.1
2017-Mar-27 14:31N 22°35' E 120°18'0 0.1
2017-Mar-27 13:31N 22°35' E 120°18'0 0.0
2017-Mar-27 12:28N 22°35' E 120°18'0 0.0
2017-Mar-27 11:31N 22°35' E 120°18'0 0.1
2017-Mar-27 10:31N 22°35' E 120°18'0 0.0
2017-Mar-27 09:31N 22°35' E 120°18'0 0.0
2017-Mar-27 08:31N 22°35' E 120°18'0 0.0
2017-Mar-27 07:31N 22°35' E 120°18'0 0.0
2017-Mar-27 06:31N 22°35' E 120°18'0 0.0
2017-Mar-27 05:31N 22°35' E 120°18'0 0.1
2017-Mar-27 04:31N 22°35' E 120°18'0 0.1
2017-Mar-27 03:31N 22°35' E 120°18'0 0.0
2017-Mar-27 02:31N 22°35' E 120°18'0 0.1
2017-Mar-27 01:28N 22°35' E 120°18'0 0.1
2017-Mar-27 00:25N 22°35' E 120°18'0 0.4
2017-Mar-26 23:33N 22°34' E 120°18'6 6.5
2017-Mar-26 22:33N 22°30' E 120°13'1817.9
2017-Mar-26 21:33N 22°14' E 120°05'  
2017-Mar-23 16:16N 01°24' E 104°28'2218.6
2017-Mar-23 15:04N 01°15' E 104°07'917.4
2017-Mar-23 14:33N 01°14' E 103°58'10 9.8
2017-Mar-23 13:34N 01°12' E 103°49'6 5.5
2017-Mar-23 12:33N 01°17' E 103°46'0 0.0
2017-Mar-23 11:33N 01°17' E 103°46'0 0.0
2017-Mar-23 10:33N 01°17' E 103°46'0 0.0
2017-Mar-23 09:33N 01°17' E 103°46'0 0.0
2017-Mar-23 08:33N 01°17' E 103°46'0 0.0
2017-Mar-23 07:33N 01°17' E 103°46'0 0.0
2017-Mar-23 06:33N 01°17' E 103°46'0 0.1
2017-Mar-23 05:33N 01°17' E 103°46'0 0.1
2017-Mar-23 04:33N 01°17' E 103°46'0 0.0
2017-Mar-23 03:33N 01°17' E 103°46'0 0.0
2017-Mar-23 02:33N 01°17' E 103°46'0 0.0
2017-Mar-23 01:33N 01°17' E 103°46'0 0.0
2017-Mar-23 00:30N 01°17' E 103°46'0 0.0
2017-Mar-22 23:33N 01°17' E 103°46'0 0.0
2017-Mar-22 22:33N 01°17' E 103°46'1 0.9
2017-Mar-22 21:33N 01°17' E 103°45'6 6.3
2017-Mar-22 20:33N 01°13' E 103°41'8 7.6
2017-Mar-22 19:33N 01°11' E 103°34'7 7.3
2017-Mar-22 18:33N 01°11' E 103°26'1514.9
2017-Mar-22 17:33N 01°20' E 103°14'  

Dump ship's entire track history